Tiempo atmosférico en la estación meteorológica de Calvià, Son Vic Nou, Illes Balears (35 m.)

Fecha
DESCASC
Temp. máxima en grados centígrados (hora)
DESCASC
Temp. mínima en grados centígrados (hora)
DESCASC
Temp. media en grados centígrados
DESCASC
Racha de viento máxima en m/sg (hora)
DESCASC
Velocidad máxima media en intervalos de 10 minutos(hora)
DESCASC
Precipitaciones diarias en mm
DESCASC
Precipitaciones de 00:00 a 06:00 en mm
DESCASC
Precipitaciones de 06:00 a 12:00 en mm
DESCASC
Precipitaciones de 12:00 a 18:00 en mm
DESCASC
Precipitaciones de 18:00 a 24:00 en mm
DESCASC

Gráficas

Temp. máximas Temp. mínimas Temp. medias Precipitaciones Rachas de viento máximas Velocidades máximas media en intervalos de 10 minutos

Datos horarios

Fecha y hora oficial Temperatura (ºC) Velocidad del viento (km/h) Dirección del viento Racha (km/h) Dirección de racha Precipitación (mm) Presión (hPa) Tendencia (hPa) Humedad (%)
2017-09-24 23:00:00 18.4 4 Este 6 Este 0 -- -- 92
2017-09-24 22:00:00 18.9 2 Este 4 Este 0 -- -- 89
2017-09-24 21:00:00 20.2 3 Norte 5 Sur 0 -- -- 85
2017-09-24 20:00:00 22.1 3 Sur 13 Sudoeste 0 -- -- 79
2017-09-24 19:00:00 23.4 8 Sudoeste 18 Sur 0 -- -- 75
2017-09-24 18:00:00 24.8 10 Sudoeste 18 Sur 0 -- -- 68
2017-09-24 17:00:00 25.5 10 Sudoeste 20 Sudoeste 0 -- -- 66
2017-09-24 16:00:00 25.7 11 Sur 19 Sur 0 -- -- 65
2017-09-24 15:00:00 25.4 10 Sudoeste 22 Sur 0 -- -- 65
2017-09-24 14:00:00 25.6 13 Sudoeste 22 Sudoeste 0 -- -- 66
2017-09-24 13:00:00 25.1 13 Sudoeste 24 Sudoeste 0 -- -- 69
2017-09-24 12:00:00 25.1 12 Sudoeste 20 Sudoeste 0 -- -- 64
2017-09-24 11:00:00 24.1 10 Sudoeste 19 Oeste 0 -- -- 76
2017-09-24 10:00:00 23.2 8 Sudoeste 19 Oeste 0 -- -- 90
2017-09-24 09:00:00 18.8 3 Este 8 Este 0 -- -- 96
2017-09-24 08:00:00 15.6 6 Este 8 Este 0 -- -- 97
2017-09-24 07:00:00 15.4 3 Este 7 Este 0 -- -- 97
2017-09-24 06:00:00 15.8 6 Este 9 Este 0 -- -- 96
2017-09-24 05:00:00 15.5 0 Calma 6 Este 0 -- -- 96
2017-09-24 04:00:00 16.1 3 Este 7 Este 0 -- -- 95
2017-09-24 03:00:00 15.8 3 Este 6 Este 0 -- -- 94
2017-09-24 02:00:00 16 3 Nordeste 6 Este 0 -- -- 93
2017-09-24 01:00:00 16.5 2 Nordeste 8 Este 0 -- -- 92
2017-09-24 00:00:00 17.5 5 Este 9 Este 0 -- -- 90
2017-09-23 23:00:00 17.7 3 Este 4 Este 0 -- -- 87
2017-09-23 22:00:00 18.8 0 Calma 6 Norte 0 -- -- 82
2017-09-23 21:00:00 20.6 2 Norte 8 Nordeste 0 -- -- 74
2017-09-23 20:00:00 22.8 6 Norte 11 Norte 0 -- -- 65
2017-09-23 19:00:00 24.5 5 Noroeste 16 Norte 0 -- -- 61
2017-09-23 18:00:00 26.6 11 Noroeste 19 Norte 0 -- -- 54
2017-09-23 17:00:00 28.1 8 Oeste 22 Oeste 0 -- -- 51
2017-09-23 16:00:00 28 11 Oeste 22 Oeste 0 -- -- 54
2017-09-23 15:00:00 26.3 9 Oeste 25 Oeste 0 -- -- 57
2017-09-23 14:00:00 27.6 5 Norte 23 Sudeste 0 -- -- 49
2017-09-23 13:00:00 25.4 5 Este 18 Sudeste 0 -- -- 58
2017-09-23 12:00:00 25.4 8 Nordeste 17 Sudeste 0 -- -- 59
2017-09-23 11:00:00 24.4 3 Este 17 Nordeste 0 -- -- 66
2017-09-23 10:00:00 24 5 Este 10 Este 0 -- -- 73
2017-09-23 09:00:00 19.5 0 Calma 5 Este 0 -- -- 91
2017-09-23 08:00:00 16.2 2 Norte 14 Norte 0 -- -- 91
2017-09-23 07:00:00 17 4 Nordeste 15 Nordeste 0 -- -- 91
2017-09-23 06:00:00 18.9 8 Norte 16 Nordeste 0 -- -- 94
2017-09-23 05:00:00 16.5 3 Norte 6 Norte 0 -- -- 94
2017-09-23 04:00:00 16.6 0 Calma 6 Noroeste 0 -- -- 93
2017-09-23 03:00:00 17.4 4 Norte 10 Norte 0 -- -- 90
2017-09-23 02:00:00 18 3 Nordeste 8 Norte 0 -- -- 90
2017-09-23 01:00:00 18.5 4 Norte 10 Norte 0 -- -- 88
2017-09-23 00:00:00 19.2 4 Norte 8 Nordeste 0 -- -- 84
2017-09-22 23:00:00 20.4 3 Nordeste 14 Este 0 -- -- 81
2017-09-22 22:00:00 21 6 Nordeste 13 Nordeste 0 -- -- 80
2017-09-22 21:00:00 20.2 5 Nordeste 9 Nordeste 0 -- -- 81
2017-09-22 20:00:00 22 4 Sur 13 Sur 0 -- -- 72
2017-09-22 19:00:00 23.6 8 Sur 15 Sur 0 -- -- 66
2017-09-22 18:00:00 25.1 5 Oeste 14 Oeste 0 -- -- 61
2017-09-22 17:00:00 25.7 3 Sudoeste 19 Noroeste 0 -- -- 59
2017-09-22 16:00:00 25.6 9 Norte 21 Sur 0 -- -- 60
2017-09-22 15:00:00 26.4 4 Oeste 10 Nordeste 0 -- -- 53
2017-09-22 14:00:00 25.8 6 Este 17 Nordeste 0 -- -- 55
2017-09-22 13:00:00 26.4 6 Este 22 Sudeste 0 -- -- 52
2017-09-22 12:00:00 25.5 15 Sudeste 24 Sur 0 -- -- 55
2017-09-22 11:00:00 24.2 11 Este 22 Este 0 -- -- 64
2017-09-22 10:00:00 22.9 8 Nordeste 16 Nordeste 0 -- -- 73
2017-09-22 09:00:00 20.5 2 Nordeste 8 Nordeste 0 -- -- 92
2017-09-22 08:00:00 15.9 2 Nordeste 6 Este 0 -- -- 93
2017-09-22 07:00:00 16.1 0 Calma 6 Norte 0 -- -- 92
2017-09-22 06:00:00 16.9 3 Nordeste 10 Norte 0 -- -- 91
2017-09-22 05:00:00 16.6 2 Nordeste 9 Norte 0 -- -- 89
2017-09-22 04:00:00 16.8 3 Nordeste 8 Norte 0 -- -- 88
2017-09-22 03:00:00 17.4 3 Nordeste 8 Nordeste 0 -- -- 85
2017-09-22 02:00:00 18.7 4 Nordeste 12 Norte 0 -- -- 80
2017-09-22 01:00:00 18.5 4 Nordeste 9 Norte 0 -- -- 80
2017-09-22 00:00:00 19.4 5 Norte 14 Norte 0 -- -- 78
2017-09-21 23:00:00 19.6 5 Norte 9 Nordeste 0 -- -- 79
2017-09-21 22:00:00 19.7 4 Nordeste 9 Norte 0 -- -- 78
2017-09-21 21:00:00 20.1 2 Este 7 Este 0 -- -- 77
2017-09-21 20:00:00 22.1 3 Este 14 Sudeste 0 -- -- 67
2017-09-21 19:00:00 23.7 6 Sudeste 18 Sudeste 0 -- -- 62
2017-09-21 18:00:00 25 12 Sur 20 Sudeste 0 -- -- 57
2017-09-21 17:00:00 26.1 12 Sur 22 Sudeste 0 -- -- 54
2017-09-21 16:00:00 26.7 9 Sudeste 27 Sudeste 0 -- -- 52
2017-09-21 15:00:00 26.3 12 Sur 23 Sur 0 -- -- 55
2017-09-21 14:00:00 26.7 8 Sudeste 23 Sur 0 -- -- 54
2017-09-21 13:00:00 25.2 11 Sudeste 30 Sudeste 0 -- -- 58
2017-09-21 12:00:00 25 13 Sur 24 Este 0 -- -- 62
2017-09-21 11:00:00 24.6 12 Sudeste 23 Sudeste 0 -- -- 67
2017-09-21 10:00:00 23.6 4 Este 10 Este 0 -- -- 82
2017-09-21 09:00:00 19.4 2 Este 5 Este 0 -- -- 95
2017-09-21 08:00:00 15.7 3 Este 6 Este 0 -- -- 97
2017-09-21 07:00:00 15.6 3 Este 5 Este 0 -- -- 96
2017-09-21 06:00:00 15.7 3 Este 8 Este 0 -- -- 95
2017-09-21 05:00:00 16.1 2 Este 6 Este 0 -- -- 95
2017-09-21 04:00:00 16 2 Este 7 Nordeste 0 -- -- 95
2017-09-21 03:00:00 16.4 2 Nordeste 6 Este 0 -- -- 94
2017-09-21 02:00:00 16.1 2 Nordeste 6 Este 0 -- -- 93
2017-09-21 01:00:00 16.8 3 Este 6 Este 0 -- -- 91
2017-09-21 00:00:00 17.1 0 Calma 6 Este 0 -- -- 89
2017-09-20 23:00:00 18.2 3 Este 5 Noroeste 0 -- -- 85
2017-09-20 22:00:00 19.6 2 Este 7 Nordeste 0 -- -- 80
2017-09-20 21:00:00 21.2 3 Sudeste 13 Sudoeste 0 -- -- 71
2017-09-20 20:00:00 22.4 6 Sudoeste 16 Sur 0 -- -- 69
2017-09-20 19:00:00 23.1 9 Sudoeste 17 Sudoeste 0 -- -- 65
2017-09-20 18:00:00 23.6 8 Sudoeste 22 Sur 0 -- -- 63
2017-09-20 17:00:00 23.7 7 Sudoeste 25 Sur 0 -- -- 63
2017-09-20 16:00:00 24.5 14 Sudoeste 26 Sur 0 -- -- 58
2017-09-20 15:00:00 24.6 15 Sudoeste 22 Sur 0 -- -- 61
2017-09-20 14:00:00 24.9 11 Sur 21 Sudoeste 0 -- -- 59
2017-09-20 13:00:00 23.7 12 Sudoeste 19 Sudoeste 0 -- -- 62
2017-09-20 12:00:00 23.5 6 Sur 19 Sudeste 0 -- -- 59
2017-09-20 11:00:00 22.2 2 Sudeste 8 Nordeste 0 -- -- 64
2017-09-20 10:00:00 20.3 3 Norte 12 Norte 0 -- -- 73
2017-09-20 09:00:00 16.8 3 Norte 10 Norte 0 -- -- 90
2017-09-20 08:00:00 14 0 Calma 8 Este 0 -- -- 91
2017-09-20 07:00:00 14.4 2 Este 7 Nordeste 0 -- -- 90
2017-09-20 06:00:00 13.5 0 Calma 8 Norte 0 -- -- 90
2017-09-20 05:00:00 13.7 2 Nordeste 6 Nordeste 0 -- -- 89
2017-09-20 04:00:00 14 3 Nordeste 6 Norte 0 -- -- 87
2017-09-20 03:00:00 15 3 Nordeste 8 Noroeste 0 -- -- 85
2017-09-20 02:00:00 15.6 5 Norte 10 Nordeste 0 -- -- 84
2017-09-20 01:00:00 15.9 4 Norte 10 Norte 0 -- -- 84
2017-09-20 00:00:00 16.2 4 Norte 8 Norte 0 -- -- 86
2017-09-19 23:00:00 14.7 3 Norte 6 Noroeste 0 -- -- 84
2017-09-19 22:00:00 15.7 3 Oeste 12 Noroeste 0 -- -- 78
2017-09-19 21:00:00 17.1 3 Nordeste 9 Nordeste 0 -- -- 72
2017-09-19 20:00:00 19.2 5 Norte 11 Norte 0 -- -- 64
2017-09-19 19:00:00 21.4 8 Nordeste 20 Nordeste 0 -- -- 55
2017-09-19 18:00:00 23 12 Nordeste 24 Nordeste 0 -- -- 52
2017-09-19 17:00:00 23.8 11 Nordeste 27 Norte 0 -- -- 51
2017-09-19 16:00:00 24.3 10 Nordeste 26 Noroeste 0 -- -- 49
2017-09-19 15:00:00 24.9 8 Norte 23 Norte 0 -- -- 50
2017-09-19 14:00:00 24.3 9 Norte 27 Norte 0 -- -- 55
2017-09-19 13:00:00 23.8 12 Noroeste 26 Norte 0 -- -- 60
2017-09-19 12:00:00 22.4 11 Norte 25 Noroeste 0 -- -- 66
2017-09-19 11:00:00 21.5 6 Sudoeste 12 Sudoeste 0 -- -- 80
2017-09-19 10:00:00 20.6 0 Calma 9 Norte 0 -- -- 91
2017-09-19 09:00:00 18 6 Norte 14 Norte 0 -- -- 94
2017-09-19 08:00:00 15.9 4 Norte 15 Norte 1.4 -- -- 95
2017-09-19 07:00:00 16.2 11 Norte 18 Norte 1.8 -- -- 94
2017-09-19 06:00:00 15.3 3 Nordeste 6 Norte 0 -- -- 95
2017-09-19 05:00:00 14.9 3 Nordeste 8 Norte 0 -- -- 94
2017-09-19 04:00:00 15.2 3 Norte 7 Norte 0 -- -- 94
2017-09-19 03:00:00 15 2 Nordeste 5 Norte 0 -- -- 93
2017-09-19 02:00:00 15.2 0 Calma 6 Nordeste 0 -- -- 91
2017-09-19 01:00:00 15.7 3 Nordeste 7 Norte 0 -- -- 89
2017-09-19 00:00:00 15.5 2 Nordeste 6 Este 0 -- -- 87
2017-09-18 23:00:00 15.6 2 Este 5 Este 0 -- -- 85
2017-09-18 22:00:00 16.6 3 Norte 5 Noroeste 0 -- -- 79
2017-09-18 21:00:00 19.7 3 Este 14 Nordeste 0 -- -- 68
2017-09-18 20:00:00 21.1 2 Norte 30 Norte 0 -- -- 65
2017-09-18 19:00:00 22.6 12 Nordeste 26 Nordeste 0 -- -- 63
2017-09-18 18:00:00 24.9 11 Nordeste 30 Norte 0 -- -- 61
2017-09-18 17:00:00 25.1 14 Noroeste 35 Noroeste 0 -- -- 65
2017-09-18 16:00:00 25.5 13 Noroeste 37 Sudoeste 0 -- -- 61
2017-09-18 15:00:00 24.8 18 Noroeste 33 Oeste 0 -- -- 67
2017-09-18 14:00:00 25.7 19 Oeste 31 Oeste 0 -- -- 68
2017-09-18 13:00:00 24.5 14 Oeste 29 Sudoeste 0 -- -- 75
2017-09-18 12:00:00 24.5 16 Sudoeste 32 Sudoeste 0 -- -- 75
2017-09-18 11:00:00 23.7 16 Sudoeste 29 Sudoeste 0 -- -- 78
2017-09-18 10:00:00 23.3 15 Sudoeste 28 Oeste 0 -- -- 81
2017-09-18 09:00:00 22.5 12 Sudoeste 25 Sudoeste 0 -- -- 85
2017-09-18 08:00:00 22.7 12 Sudoeste 24 Sudoeste 0 -- -- 84
2017-09-18 07:00:00 20.9 5 Sudoeste 15 Sudoeste 0 -- -- 96
2017-09-18 06:00:00 18.9 3 Nordeste 8 Este 0 -- -- 95
2017-09-18 05:00:00 18.9 3 Norte 7 Este 0 -- -- 95
2017-09-18 04:00:00 18.4 3 Nordeste 7 Noroeste 0 -- -- 95
2017-09-18 03:00:00 18.4 2 Nordeste 4 Este 0 -- -- 94
2017-09-18 02:00:00 18.1 2 Norte 6 Norte 0 -- -- 93
2017-09-18 01:00:00 18.4 2 Nordeste 7 Noroeste 0 -- -- 92
2017-09-18 00:00:00 18.3 0 Calma 5 Nordeste 0 -- -- 91
2017-09-17 23:00:00 18.2 2 Este 6 Este 0 -- -- 90
2017-09-17 22:00:00 18.1 2 Nordeste 8 Norte 0 -- -- 88
2017-09-17 21:00:00 18.7 0 Calma 8 Norte 0 -- -- 84
2017-09-17 20:00:00 20.5 3 Norte 8 Sur 0 -- -- 75
2017-09-17 19:00:00 22.4 6 Sudoeste 14 Sudoeste 0 -- -- 68
2017-09-17 18:00:00 23.9 8 Sur 19 Sur 0 -- -- 63
2017-09-17 17:00:00 24.2 10 Sudoeste 18 Sur 0 -- -- 61
2017-09-17 16:00:00 23.9 10 Sudoeste 25 Sur 0 -- -- 59
2017-09-17 15:00:00 24.1 10 Sudoeste 22 Sur 0 -- -- 58
2017-09-17 14:00:00 23.8 12 Sudoeste 20 Sudoeste 0 -- -- 57
2017-09-17 13:00:00 24 10 Sur 19 Sur 0 -- -- 55
2017-09-17 12:00:00 23 8 Sudoeste 17 Sur 0 -- -- 56
2017-09-17 11:00:00 22.4 7 Sudoeste 11 Sudoeste 0 -- -- 58
2017-09-17 10:00:00 21.4 2 Oeste 4 Sur 0 -- -- 75
2017-09-17 09:00:00 17.6 2 Este 6 Este 0 -- -- 94
2017-09-17 08:00:00 12.2 2 Este 7 Este 0 -- -- 98
2017-09-17 07:00:00 11.9 3 Este 8 Norte 0 -- -- 97
2017-09-17 06:00:00 12 4 Este 8 Este 0 -- -- 97
2017-09-17 05:00:00 12.4 3 Este 8 Este 0.2 -- -- 97
2017-09-17 04:00:00 12.4 3 Este 8 Este 0 -- -- 96
2017-09-17 03:00:00 13 7 Este 9 Este 0 -- -- 96
2017-09-17 02:00:00 13.2 3 Este 8 Este 0 -- -- 96
2017-09-17 01:00:00 13.5 3 Este 6 Este 0 -- -- 95
2017-09-17 00:00:00 14 2 Este 8 Este 0 -- -- 95
2017-09-16 23:00:00 14.3 2 Nordeste 7 Este 0 -- -- 93
2017-09-16 22:00:00 15.2 4 Este 7 Este 0 -- -- 91
2017-09-16 21:00:00 16.4 2 Este 5 Noroeste 0 -- -- 88
2017-09-16 20:00:00 18 2 Nordeste 5 Nordeste 0 -- -- 81
2017-09-16 19:00:00 20.2 3 Este 14 Sur 0 -- -- 73
2017-09-16 18:00:00 20.8 10 Sur 19 Sudoeste 0 -- -- 74
2017-09-16 17:00:00 20.7 10 Sudoeste 15 Sudoeste 0 -- -- 75
2017-09-16 16:00:00 20.7 4 Sudoeste 9 Sudoeste 0 -- -- 78
2017-09-16 15:00:00 19.4 4 Sudoeste 9 Sur 0 -- -- 82
2017-09-16 14:00:00 19.3 2 Sur 9 Sudeste 0.2 -- -- 82
2017-09-16 13:00:00 19.1 3 Sur 10 Sudeste 0.2 -- -- 80
2017-09-16 12:00:00 19.7 4 Sudeste 15 Sudeste 0 -- -- 76
2017-09-16 11:00:00 19.5 6 Este 13 Este 0 -- -- 88
2017-09-16 10:00:00 17.4 4 Nordeste 10 Norte 0.2 -- -- 95
2017-09-16 09:00:00 15.8 0 Calma 9 Norte 0 -- -- 97
2017-09-16 08:00:00 15.3 0 Calma 5 Noroeste 0 -- -- 97
2017-09-16 07:00:00 15.6 0 Calma 5 Nordeste 0 -- -- 96
2017-09-16 06:00:00 15.8 0 Calma 4 Este 0 -- -- 96
2017-09-16 05:00:00 15.9 0 Calma 5 Sur 0 -- -- 95
2017-09-16 04:00:00 16.1 0 Calma 7 Nordeste 0 -- -- 94
2017-09-16 03:00:00 16 2 Este 5 Este 0.2 -- -- 93
2017-09-16 02:00:00 16.3 0 Calma 12 Este 3 -- -- 90
2017-09-16 01:00:00 17.8 6 Este 19 Nordeste 0 -- -- 85
2017-09-16 00:00:00 17.7 3 Este 12 Este 0 -- -- 87
2017-09-15 23:00:00 18.2 3 Nordeste 18 Nordeste 0.2 -- -- 84
2017-09-15 22:00:00 19.1 6 Norte 25 Nordeste 0 -- -- 81
2017-09-15 21:00:00 19.9 9 Nordeste 22 Nordeste 0 -- -- 80
2017-09-15 20:00:00 20 9 Norte 22 Norte 0 -- -- 80
2017-09-15 19:00:00 20.4 7 Nordeste 20 Norte 0.2 -- -- 80
2017-09-15 18:00:00 20.9 7 Nordeste 25 Nordeste 0 -- -- 79
2017-09-15 17:00:00 20.7 12 Nordeste 27 Nordeste 0 -- -- 84
2017-09-15 16:00:00 20.4 9 Nordeste 20 Este 0 -- -- 93
2017-09-15 15:00:00 19.3 6 Norte 30 Noroeste 33.4 -- -- 93
2017-09-15 14:00:00 19.8 12 Sudoeste 29 Este 0.6 -- -- 81
2017-09-15 13:00:00 20.6 12 Nordeste 45 Este 0 -- -- 74
2017-09-15 12:00:00 23.1 15 Nordeste 42 Este 0 -- -- 63
2017-09-15 11:00:00 23.2 15 Este 37 Este 0 -- -- 63
2017-09-15 10:00:00 21.9 13 Nordeste 32 Este 0 -- -- 66
2017-09-15 09:00:00 21.3 12 Nordeste 32 Nordeste 0 -- -- 68
2017-09-15 08:00:00 21.1 11 Nordeste 28 Este 0 -- -- 68
2017-09-15 07:00:00 21.3 10 Nordeste 28 Este 0 -- -- 67
2017-09-15 06:00:00 21.1 8 Nordeste 28 Este 0 -- -- 69
2017-09-15 05:00:00 21.2 12 Nordeste 30 Este 0 -- -- 69
2017-09-15 04:00:00 21.2 12 Nordeste 32 Este 0 -- -- 69
2017-09-15 03:00:00 21.2 7 Nordeste 24 Este 0 -- -- 71
2017-09-15 02:00:00 21.1 13 Nordeste 31 Nordeste 0 -- -- 75
2017-09-15 01:00:00 21.3 13 Nordeste 32 Nordeste 0 -- -- 74
2017-09-15 00:00:00 21.7 13 Nordeste 30 Nordeste 0 -- -- 75
2017-09-14 23:00:00 22.2 13 Nordeste 31 Nordeste 0 -- -- 77
2017-09-14 22:00:00 22.5 11 Nordeste 33 Este 0 -- -- 78
2017-09-14 21:00:00 24.3 9 Nordeste 19 Este 0 -- -- 78
2017-09-14 20:00:00 24.2 3 Sudoeste 12 Sur 0 -- -- 80
2017-09-14 19:00:00 25.2 7 Sur 15 Sur 0 -- -- 77
2017-09-14 18:00:00 26 10 Sur 21 Sur 0 -- -- 73
2017-09-14 17:00:00 26.9 13 Sudoeste 22 Sudoeste 0 -- -- 69
2017-09-14 16:00:00 27.3 13 Sudoeste 20 Sur 0 -- -- 66
2017-09-14 15:00:00 27.3 11 Sur 21 Sur 0 -- -- 66
2017-09-14 14:00:00 27.4 12 Sudoeste 21 Sudoeste 0 -- -- 67
2017-09-14 13:00:00 26.8 12 Sudoeste 24 Sudoeste 0 -- -- 67
2017-09-14 12:00:00 26.5 13 Sudoeste 26 Oeste 0 -- -- 70
2017-09-14 11:00:00 26.1 10 Sur 18 Sur 0 -- -- 71
2017-09-14 10:00:00 25.8 5 Sudeste 11 Sudeste 0 -- -- 78
2017-09-14 09:00:00 21.9 0 Calma 8 Este 0 -- -- 93
2017-09-14 08:00:00 18 6 Este 10 Este 0 -- -- 96
2017-09-14 07:00:00 17.6 4 Este 8 Este 0 -- -- 96
2017-09-14 06:00:00 17.7 4 Este 9 Este 0 -- -- 96
2017-09-14 05:00:00 17.7 5 Este 9 Este 0 -- -- 95
2017-09-14 04:00:00 17.5 5 Este 8 Este 0 -- -- 94
2017-09-14 03:00:00 17.7 4 Nordeste 8 Este 0 -- -- 93
2017-09-14 02:00:00 17.9 3 Este 5 Norte 0 -- -- 92
2017-09-14 01:00:00 18.3 3 Este 6 Este 0 -- -- 91
2017-09-14 00:00:00 18.8 2 Este 5 Norte 0 -- -- 88
2017-09-13 23:00:00 19.7 3 Norte 6 Norte 0 -- -- 85
2017-09-13 22:00:00 21.3 3 Este 8 Sudeste 0 -- -- 79
2017-09-13 21:00:00 22.9 5 Sudeste 12 Sudeste 0 -- -- 74
2017-09-13 20:00:00 24.1 8 Sur 18 Sudeste 0 -- -- 70
2017-09-13 19:00:00 25.1 9 Sur 22 Sudoeste 0 -- -- 64
2017-09-13 18:00:00 26.6 12 Sudoeste 22 Sudoeste 0 -- -- 60
2017-09-13 17:00:00 26.5 13 Sudoeste 24 Sudoeste 0 -- -- 60
2017-09-13 16:00:00 27.2 12 Sudoeste 23 Sur 0 -- -- 57
2017-09-13 15:00:00 27.2 14 Sudoeste 24 Sudoeste 0 -- -- 55
2017-09-13 14:00:00 26.7 15 Sudoeste 26 Sudoeste 0 -- -- 55
2017-09-13 13:00:00 27.2 11 Oeste 21 Oeste 0 -- -- 53
2017-09-13 12:00:00 25 12 Sudoeste 19 Sur 0 -- -- 64
2017-09-13 11:00:00 25.9 6 Sudoeste 17 Sudoeste 0 -- -- 62
2017-09-13 10:00:00 25.6 3 Sudeste 8 Norte 0 -- -- 68
2017-09-13 09:00:00 22.5 2 Norte 6 Norte 0 -- -- 88
2017-09-13 08:00:00 16.7 0 Calma 4 Este 0 -- -- 94
2017-09-13 07:00:00 16.5 0 Calma 8 Este 0 -- -- 93
2017-09-13 06:00:00 16.7 2 Este 8 Norte 0 -- -- 92
2017-09-13 05:00:00 17.1 3 Nordeste 10 Norte 0 -- -- 91
2017-09-13 04:00:00 17 3 Nordeste 7 Norte 0 -- -- 90
2017-09-13 03:00:00 17.1 3 Nordeste 6 Norte 0 -- -- 89
2017-09-13 02:00:00 18.2 4 Norte 10 Noroeste 0 -- -- 86
2017-09-13 01:00:00 18 5 Norte 9 Noroeste 0 -- -- 86
2017-09-13 00:00:00 19.1 3 Norte 8 Nordeste 0 -- -- 82
2017-09-12 23:00:00 19.6 3 Nordeste 12 Nordeste 0 -- -- 80
2017-09-12 22:00:00 20.5 4 Nordeste 10 Este 0 -- -- 78
2017-09-12 21:00:00 21.8 5 Nordeste 14 Nordeste 0 -- -- 72
2017-09-12 20:00:00 23.4 6 Nordeste 19 Sudeste 0 -- -- 67
2017-09-12 19:00:00 25.3 10 Sudeste 19 Sudeste 0 -- -- 63
2017-09-12 18:00:00 26.4 7 Sudeste 20 Sur 0 -- -- 59
2017-09-12 17:00:00 26.8 10 Sudeste 22 Sudeste 0 -- -- 59
2017-09-12 16:00:00 26.5 9 Sur 21 Sudeste 0 -- -- 59
2017-09-12 15:00:00 27.3 9 Sudeste 23 Sudeste 0 -- -- 56
2017-09-12 14:00:00 27.8 11 Sudeste 23 Sudeste 0 -- -- 56
2017-09-12 13:00:00 27.8 5 Este 21 Sudeste 0 -- -- 57
2017-09-12 12:00:00 27.8 8 Este 24 Sudeste 0 -- -- 57
2017-09-12 11:00:00 26.3 14 Este 28 Sudeste 0 -- -- 64
2017-09-12 10:00:00 26.1 11 Este 25 Este 0 -- -- 69
2017-09-12 09:00:00 24.9 3 Nordeste 14 Norte 0 -- -- 73
2017-09-12 08:00:00 18.9 4 Norte 11 Nordeste 0 -- -- 87
2017-09-12 07:00:00 18.2 2 Norte 6 Noroeste 0 -- -- 85
2017-09-12 06:00:00 18 3 Este 7 Este 0 -- -- 83
2017-09-12 05:00:00 17.3 3 Norte 8 Este 0 -- -- 82
2017-09-12 04:00:00 18.1 2 Nordeste 8 Este 0 -- -- 82
2017-09-12 03:00:00 17.7 5 Norte 10 Este 0 -- -- 84
2017-09-12 02:00:00 18.4 4 Nordeste 9 Este 0 -- -- 84
2017-09-12 01:00:00 18 4 Este 8 Este 0 -- -- 84
2017-09-12 00:00:00 18.4 2 Nordeste 6 Este 0 -- -- 84
2017-09-11 23:00:00 19.1 4 Este 5 Este 0 -- -- 81
2017-09-11 22:00:00 20.3 2 Nordeste 5 Este 0 -- -- 75
2017-09-11 21:00:00 22.5 2 Este 15 Oeste 0 -- -- 65
2017-09-11 20:00:00 25.4 6 Sudoeste 24 Sudoeste 0 -- -- 53
2017-09-11 19:00:00 26.7 10 Oeste 31 Sudoeste 0 -- -- 51
2017-09-11 18:00:00 27.6 15 Sudoeste 30 Sudoeste 0 -- -- 52
2017-09-11 17:00:00 28 17 Oeste 30 Noroeste 0 -- -- 54
2017-09-11 16:00:00 28.5 19 Sudoeste 30 Sudoeste 0 -- -- 52
2017-09-11 15:00:00 29 14 Sudoeste 31 Sudoeste 0 -- -- 48
2017-09-11 14:00:00 28.7 15 Oeste 31 Oeste 0 -- -- 49
2017-09-11 13:00:00 28.3 19 Oeste 39 Oeste 0 -- -- 46
2017-09-11 12:00:00 28.4 16 Oeste 32 Oeste 0 -- -- 46
2017-09-11 11:00:00 27.5 8 Noroeste 38 Noroeste 0 -- -- 50
2017-09-11 10:00:00 27 7 Norte 35 Norte 0 -- -- 53
2017-09-11 09:00:00 25.2 14 Oeste 30 Norte 0 -- -- 61
2017-09-11 08:00:00 22.3 6 Noroeste 20 Norte 0 -- -- 73
2017-09-11 07:00:00 22.1 7 Noroeste 25 Sudoeste 0 -- -- 72
2017-09-11 06:00:00 22.5 11 Oeste 30 Noroeste 0 -- -- 71
2017-09-11 05:00:00 22.3 12 Oeste 32 Oeste 0 -- -- 64
2017-09-11 04:00:00 22.4 17 Oeste 33 Sudoeste 0 -- -- 63
2017-09-11 03:00:00 21.2 4 Oeste 19 Oeste 0 -- -- 56
2017-09-11 02:00:00 21.6 3 Oeste 18 Oeste 0 -- -- 56
2017-09-11 01:00:00 22.4 6 Noroeste 26 Oeste 0 -- -- 51
2017-09-11 00:00:00 22.1 13 Oeste 29 Oeste 0 -- -- 54
2017-09-10 23:00:00 21.7 9 Oeste 22 Noroeste 0 -- -- 55
2017-09-10 22:00:00 20.9 9 Noroeste 18 Noroeste 0 -- -- 60
2017-09-10 21:00:00 20.7 3 Nordeste 13 Noroeste 0 -- -- 54
2017-09-10 20:00:00 21 3 Oeste 19 Noroeste 0 -- -- 57
2017-09-10 19:00:00 23 15 Noroeste 29 Noroeste 0 -- -- 51
2017-09-10 18:00:00 23.4 10 Noroeste 29 Noroeste 0 -- -- 54
2017-09-10 17:00:00 24 14 Noroeste 34 Norte 0 -- -- 50
2017-09-10 16:00:00 23.3 18 Noroeste 36 Norte 0 -- -- 52
2017-09-10 15:00:00 23.4 13 Noroeste 33 Noroeste 0 -- -- 58
2017-09-10 14:00:00 22.7 18 Noroeste 33 Noroeste 0 -- -- 61
2017-09-10 13:00:00 22.7 7 Norte 24 Noroeste 0 -- -- 65
2017-09-10 12:00:00 20.8 6 Sudeste 13 Sudeste 0 -- -- 80
2017-09-10 11:00:00 18.5 3 Nordeste 10 Norte 0.6 -- -- 94
2017-09-10 10:00:00 15.6 5 Nordeste 14 Noroeste 2 -- -- 95
2017-09-10 09:00:00 16.2 0 Calma 11 Este 1 -- -- 95
2017-09-10 08:00:00 14.6 4 Este 17 Norte 1.6 -- -- 95
2017-09-10 07:00:00 14 3 Nordeste 13 Norte 0.2 -- -- 94
2017-09-10 06:00:00 15 10 Norte 19 Nordeste 1.2 -- -- 93
2017-09-10 05:00:00 14.4 3 Este 13 Norte 0 -- -- 92
2017-09-10 04:00:00 15.1 2 Sudeste 22 Nordeste 0 -- -- 88
2017-09-10 03:00:00 16.9 7 Nordeste 27 Norte 0.6 -- -- 89
2017-09-10 02:00:00 18.4 12 Norte 24 Norte 0 -- -- 90
2017-09-10 01:00:00 18.3 10 Oeste 20 Oeste 0.2 -- -- 93
2017-09-10 00:00:00 17.8 3 Nordeste 14 Norte 0.6 -- -- 92
2017-09-09 23:00:00 18.3 4 Norte 12 Norte 0.8 -- -- 90
2017-09-09 22:00:00 19 5 Norte 24 Sudeste 1.2 -- -- 84
2017-09-09 21:00:00 21.3 6 Nordeste 39 Nordeste 0 -- -- 70
2017-09-09 20:00:00 23 15 Nordeste 37 Nordeste 0 -- -- 68
2017-09-09 19:00:00 24.6 11 Norte 32 Norte 0 -- -- 65
2017-09-09 18:00:00 24.6 17 Norte 37 Norte 0 -- -- 63
2017-09-09 17:00:00 26.4 17 Noroeste 32 Noroeste 0 -- -- 58
2017-09-09 16:00:00 27.2 13 Oeste 32 Sudoeste 0 -- -- 63
2017-09-09 15:00:00 28.7 17 Sudoeste 30 Sudoeste 0 -- -- 60
2017-09-09 14:00:00 28.6 15 Sudoeste 28 Sudoeste 0 -- -- 64
2017-09-09 13:00:00 27.2 17 Sudoeste 29 Sudoeste 0 -- -- 77
2017-09-09 12:00:00 26.5 14 Sudoeste 26 Sur 0 -- -- 75
2017-09-09 11:00:00 26.9 13 Sudoeste 26 Sudoeste 0 -- -- 71
2017-09-09 10:00:00 26.3 13 Sudoeste 22 Sur 0 -- -- 75
2017-09-09 09:00:00 24.9 10 Sur 18 Sudoeste 0 -- -- 90
2017-09-09 08:00:00 19.4 0 Calma 9 Norte 0 -- -- 96
2017-09-09 07:00:00 18.6 2 Este 5 Noroeste 0 -- -- 95
2017-09-09 06:00:00 18.8 3 Nordeste 8 Este 0 -- -- 94
2017-09-09 05:00:00 19.7 3 Nordeste 6 Norte 0 -- -- 93
2017-09-09 04:00:00 19.9 3 Nordeste 10 Este 0 -- -- 91
2017-09-09 03:00:00 20.9 8 Este 11 Este 0 -- -- 90
2017-09-09 02:00:00 21.1 0 Calma 8 Este 0 -- -- 88
2017-09-09 01:00:00 21.5 5 Este 8 Este 0 -- -- 87
2017-09-09 00:00:00 22.1 3 Nordeste 8 Este 0 -- -- 85
2017-09-08 23:00:00 22.6 6 Este 8 Este 0 -- -- 83
2017-09-08 22:00:00 23.2 4 Este 6 Este 0 -- -- 82
2017-09-08 21:00:00 23.6 4 Nordeste 6 Nordeste 0 -- -- 80
2017-09-08 20:00:00 24.6 2 Sur 10 Sudoeste 0 -- -- 76
2017-09-08 19:00:00 25.5 8 Sudoeste 19 Sur 0 -- -- 70
2017-09-08 18:00:00 27 12 Sudoeste 23 Sur 0 -- -- 64
2017-09-08 17:00:00 27.5 14 Sur 27 Oeste 0 -- -- 61
2017-09-08 16:00:00 28.6 10 Oeste 26 Sudoeste 0 -- -- 57
2017-09-08 15:00:00 28.9 14 Oeste 27 Sudoeste 0 -- -- 53
2017-09-08 14:00:00 28.7 15 Sudoeste 30 Oeste 0 -- -- 52
2017-09-08 13:00:00 28.9 11 Oeste 27 Sudoeste 0 -- -- 54
2017-09-08 12:00:00 27.8 13 Sudoeste 23 Sudoeste 0 -- -- 58
2017-09-08 11:00:00 26.9 11 Sudoeste 22 Sudoeste 0 -- -- 67
2017-09-08 10:00:00 24.5 5 Sur 9 Sudoeste 0 -- -- 81
2017-09-08 09:00:00 21.5 0 Calma 8 Este 0 -- -- 94
2017-09-08 08:00:00 17.8 6 Este 9 Este 0 -- -- 97
2017-09-08 07:00:00 17.8 0 Calma 10 Este 0 -- -- 96
2017-09-08 06:00:00 17.6 0 Calma 9 Este 0 -- -- 96
2017-09-08 05:00:00 17.9 0 Calma 6 Norte 0 -- -- 94
2017-09-08 04:00:00 18.1 2 Nordeste 7 Este 0 -- -- 94
2017-09-08 03:00:00 18.7 3 Nordeste 6 Este 0 -- -- 92
2017-09-08 02:00:00 19.4 0 Calma 3 Este 0 -- -- 91
2017-09-08 01:00:00 19.6 0 Calma 5 Este 0 -- -- 90
2017-09-08 00:00:00 20.3 2 Este 5 Este 0 -- -- 87
2017-09-07 23:00:00 21.4 2 Este 9 Norte 0 -- -- 82
2017-09-07 22:00:00 22.7 3 Norte 6 Norte 0 -- -- 80
2017-09-07 21:00:00 22.7 3 Norte 8 Este 0 -- -- 82
2017-09-07 20:00:00 23 3 Sudeste 12 Sudeste 0 -- -- 79
2017-09-07 19:00:00 24.6 3 Sur 15 Sudeste 0 -- -- 75
2017-09-07 18:00:00 24.9 9 Sur 17 Sudoeste 0 -- -- 73
2017-09-07 17:00:00 26.2 8 Sudoeste 17 Oeste 0 -- -- 69
2017-09-07 16:00:00 25 11 Sudoeste 18 Sur 0 -- -- 72
2017-09-07 15:00:00 25.4 12 Sudoeste 20 Oeste 0 -- -- 72
2017-09-07 14:00:00 25.3 6 Sudoeste 30 Sudoeste 0 -- -- 76
2017-09-07 13:00:00 27.5 13 Sudoeste 21 Sudoeste 0 -- -- 65
2017-09-07 12:00:00 27.3 6 Sudoeste 15 Sur 0 -- -- 64
2017-09-07 11:00:00 24 2 Norte 15 Nordeste 0 -- -- 75
2017-09-07 10:00:00 25.3 3 Nordeste 8 Nordeste 0 -- -- 76
2017-09-07 09:00:00 21.1 3 Este 7 Este 0 -- -- 90
2017-09-07 08:00:00 20 4 Nordeste 8 Nordeste 0 -- -- 91
2017-09-07 07:00:00 19.6 3 Nordeste 6 Este 0 -- -- 91
2017-09-07 06:00:00 19.7 3 Nordeste 6 Este 0 -- -- 91
2017-09-07 05:00:00 19.9 2 Nordeste 6 Este 0 -- -- 89
2017-09-07 04:00:00 20.1 0 Calma 5 Norte 0 -- -- 88
2017-09-07 03:00:00 20.6 0 Calma 5 Norte 0 -- -- 87
2017-09-07 02:00:00 21.1 2 Nordeste 6 Norte 0 -- -- 85
2017-09-07 01:00:00 21.4 0 Calma 6 Nordeste 0 -- -- 84
2017-09-07 00:00:00 22.3 2 Nordeste 4 Nordeste 0 -- -- 81
2017-09-06 23:00:00 24.1 3 Sudeste 11 Sudeste 0 -- -- 75
2017-09-06 22:00:00 24.1 4 Este 7 Este 0 -- -- 78
2017-09-06 21:00:00 24.3 3 Nordeste 5 Sudeste 0 -- -- 77
2017-09-06 20:00:00 25.2 4 Sudeste 14 Sur 0 -- -- 72
2017-09-06 19:00:00 26.1 6 Sur 17 Sur 0 -- -- 70
2017-09-06 18:00:00 26.9 6 Sudeste 24 Sudeste 0 -- -- 70
2017-09-06 17:00:00 27.6 14 Sur 24 Sudeste 0 -- -- 65
2017-09-06 16:00:00 28.2 15 Sudoeste 26 Sudoeste 0 -- -- 65
2017-09-06 15:00:00 28.1 14 Sudoeste 25 Sudoeste 0 -- -- 64
2017-09-06 14:00:00 27.7 18 Sudoeste 29 Sur 0 -- -- 66
2017-09-06 13:00:00 28.9 10 Sudoeste 29 Sudoeste 0 -- -- 58
2017-09-06 12:00:00 29.4 5 Nordeste 22 Sur 0 -- -- 52
2017-09-06 11:00:00 28.7 9 Sur 14 Sudeste 0 -- -- 58
2017-09-06 10:00:00 27.5 8 Sudeste 15 Este 0 -- -- 64
2017-09-06 09:00:00 24.3 0 Calma 8 Este 0 -- -- 86
2017-09-06 08:00:00 18.2 0 Calma 6 Este 0 -- -- 95
2017-09-06 07:00:00 18.4 3 Norte 8 Este 0 -- -- 95
2017-09-06 06:00:00 18.7 2 Este 6 Este 0 -- -- 95
2017-09-06 05:00:00 18.6 3 Nordeste 8 Este 0 -- -- 94
2017-09-06 04:00:00 19.3 0 Calma 4 Nordeste 0 -- -- 93
2017-09-06 03:00:00 19.7 5 Este 8 Este 0 -- -- 92
2017-09-06 02:00:00 19.8 2 Nordeste 8 Este 0 -- -- 91
2017-09-06 01:00:00 20.2 2 Este 6 Norte 0 -- -- 89
2017-09-06 00:00:00 20.5 2 Nordeste 5 Este 0 -- -- 87
2017-09-05 23:00:00 20.8 2 Este 4 Este 0 -- -- 85
2017-09-05 22:00:00 21.9 2 Nordeste 7 Noroeste 0 -- -- 81
2017-09-05 21:00:00 23.4 3 Nordeste 7 Sur 0 -- -- 72
2017-09-05 20:00:00 25.4 5 Sudoeste 14 Sudoeste 0 -- -- 69
2017-09-05 19:00:00 26.6 8 Sudoeste 15 Sur 0 -- -- 63
2017-09-05 18:00:00 28.2 10 Sur 18 Sudoeste 0 -- -- 62
2017-09-05 17:00:00 28.5 12 Sudoeste 22 Sudoeste 0 -- -- 61
2017-09-05 16:00:00 28.5 14 Sudoeste 24 Sudoeste 0 -- -- 60
2017-09-05 15:00:00 28.6 14 Sudoeste 22 Sudoeste 0 -- -- 62
2017-09-05 14:00:00 28.4 12 Sudoeste 22 Sudoeste 0 -- -- 63
2017-09-05 13:00:00 28.6 14 Sudoeste 23 Sudoeste 0 -- -- 61
2017-09-05 12:00:00 28.1 14 Sudoeste 21 Sudoeste 0 -- -- 63
2017-09-05 11:00:00 28.9 6 Sur 14 Sur 0 -- -- 59
2017-09-05 10:00:00 27.6 5 Sudeste 14 Este 0 -- -- 64
2017-09-05 09:00:00 25.9 0 Calma 6 Noroeste 0 -- -- 80
2017-09-05 08:00:00 19.6 0 Calma 7 Nordeste 0 -- -- 92
2017-09-05 07:00:00 19.6 3 Nordeste 8 Este 0 -- -- 92
2017-09-05 06:00:00 19.7 3 Este 5 Norte 0 -- -- 91
2017-09-05 05:00:00 19.8 0 Calma 5 Este 0 -- -- 90
2017-09-05 04:00:00 20.5 0 Calma 8 Nordeste 0 -- -- 88
2017-09-05 03:00:00 20.4 3 Nordeste 6 Nordeste 0 -- -- 86
2017-09-05 02:00:00 21.6 5 Norte 10 Norte 0 -- -- 83
2017-09-05 01:00:00 21 0 Calma 9 Nordeste 0 -- -- 82
2017-09-05 00:00:00 20.7 2 Este 8 Este 0 -- -- 83
2017-09-04 23:00:00 21 2 Nordeste 5 Norte 0 -- -- 81
2017-09-04 22:00:00 23 4 Norte 9 Norte 0 -- -- 77
2017-09-04 21:00:00 23.8 3 Norte 8 Norte 0 -- -- 72
2017-09-04 20:00:00 25.9 6 Sur 16 Sur 0 -- -- 66
2017-09-04 19:00:00 27.7 11 Sur 18 Sudeste 0 -- -- 53
2017-09-04 18:00:00 29.9 12 Sur 22 Sur 0 -- -- 42
2017-09-04 17:00:00 30 12 Sur 22 Sur 0 -- -- 49
2017-09-04 16:00:00 31.8 8 Sudeste 22 Sudeste 0 -- -- 35
2017-09-04 15:00:00 30.6 12 Sur 21 Sur 0 -- -- 42
2017-09-04 14:00:00 30 13 Sur 23 Sudeste 0 -- -- 49
2017-09-04 13:00:00 28.8 14 Sudeste 27 Sudeste 0 -- -- 58
2017-09-04 12:00:00 27.9 9 Sudeste 22 Este 0 -- -- 67
2017-09-04 11:00:00 26.8 9 Sur 22 Sudeste 0 -- -- 68
2017-09-04 10:00:00 26.3 7 Este 17 Sudeste 0 -- -- 72
2017-09-04 09:00:00 23.4 0 Calma 9 Nordeste 0 -- -- 85
2017-09-04 08:00:00 20.6 2 Norte 7 Nordeste 0 -- -- 90
2017-09-04 07:00:00 20.6 3 Este 7 Norte 0 -- -- 90
2017-09-04 06:00:00 19.8 0 Calma 8 Este 0 -- -- 90
2017-09-04 05:00:00 19.4 2 Este 8 Este 0 -- -- 91
2017-09-04 04:00:00 18.9 4 Nordeste 12 Norte 0 -- -- 92
2017-09-04 03:00:00 18.6 2 Este 6 Este 0 -- -- 90
2017-09-04 02:00:00 18.9 0 Calma 7 Este 0 -- -- 89
2017-09-04 01:00:00 19.3 2 Este 5 Este 0 -- -- 88
2017-09-04 00:00:00 19.8 2 Nordeste 5 Este 0 -- -- 85
2017-09-03 23:00:00 21.3 0 Calma 6 Este 0 -- -- 80
2017-09-03 22:00:00 23.3 4 Sudeste 10 Sur 0 -- -- 75
2017-09-03 21:00:00 24.2 5 Sur 13 Sudoeste 0 -- -- 72
2017-09-03 20:00:00 24.8 8 Sudoeste 19 Sur 0 -- -- 70
2017-09-03 19:00:00 25.1 8 Sudoeste 19 Sudoeste 0 -- -- 70
2017-09-03 18:00:00 25.6 10 Sudoeste 21 Sudoeste 0 -- -- 69
2017-09-03 17:00:00 26.8 12 Sudoeste 25 Sur 0 -- -- 65
2017-09-03 16:00:00 26.6 15 Sudoeste 27 Sudoeste 0 -- -- 65
2017-09-03 15:00:00 26.2 13 Sudoeste 24 Sudoeste 0 -- -- 64
2017-09-03 14:00:00 27.2 15 Sudoeste 26 Sudoeste 0 -- -- 60
2017-09-03 13:00:00 26.6 13 Sudoeste 24 Sur 0 -- -- 62
2017-09-03 12:00:00 26 11 Sudoeste 20 Sudoeste 0 -- -- 60
2017-09-03 11:00:00 25.5 13 Sudoeste 19 Sudoeste 0 -- -- 59
2017-09-03 10:00:00 25.8 4 Sudoeste 8 Sur 0 -- -- 56
2017-09-03 09:00:00 22.1 0 Calma 8 Este 0 -- -- 67
2017-09-03 08:00:00 15.7 3 Este 8 Este 0 -- -- 75
2017-09-03 07:00:00 14.6 3 Este 7 Este 0 -- -- 84
2017-09-03 06:00:00 14.5 0 Calma 7 Este 0 -- -- 84
2017-09-03 05:00:00 15.1 2 Nordeste 5 Sudeste 0 -- -- 87
2017-09-03 04:00:00 15.9 3 Este 6 Norte 0 -- -- 85
2017-09-03 03:00:00 17.5 5 Norte 12 Norte 0 -- -- 83
2017-09-03 02:00:00 17.3 4 Norte 11 Norte 0 -- -- 79
2017-09-03 01:00:00 19 6 Norte 14 Noroeste 0 -- -- 72
2017-09-03 00:00:00 19.9 7 Norte 13 Nordeste 0 -- -- 70
2017-09-02 23:00:00 17.5 4 Norte 7 Norte 0 -- -- 62
2017-09-02 22:00:00 18.9 4 Nordeste 10 Norte 0 -- -- 45
2017-09-02 21:00:00 19.8 5 Noroeste 12 Norte 0 -- -- 47
2017-09-02 20:00:00 23.1 4 Norte 22 Norte 0 -- -- 39
2017-09-02 19:00:00 25.1 6 Norte 22 Noroeste 0 -- -- 41
2017-09-02 18:00:00 26.7 12 Noroeste 23 Noroeste 0 -- -- 40
2017-09-02 17:00:00 27.1 14 Noroeste 23 Norte 0 -- -- 41
2017-09-02 16:00:00 27.5 14 Noroeste 24 Oeste 0 -- -- 40
2017-09-02 15:00:00 28.1 12 Norte 22 Noroeste 0 -- -- 37
2017-09-02 14:00:00 26.8 10 Norte 35 Norte 0 -- -- 43
2017-09-02 13:00:00 26.1 13 Noroeste 27 Norte 0 -- -- 44
2017-09-02 12:00:00 25.9 13 Norte 28 Norte 0 -- -- 47
2017-09-02 11:00:00 24.9 12 Norte 35 Noroeste 0 -- -- 51
2017-09-02 10:00:00 23.9 13 Norte 38 Noroeste 0 -- -- 55
2017-09-02 09:00:00 23.5 7 Norte 24 Noroeste 0 -- -- 60
2017-09-02 08:00:00 18 3 Este 9 Nordeste 0 -- -- 88
2017-09-02 07:00:00 18.1 2 Norte 6 Noroeste 0 -- -- 87
2017-09-02 06:00:00 19.8 4 Noroeste 10 Nordeste 0 -- -- 81
2017-09-02 05:00:00 19.7 3 Norte 7 Norte 0 -- -- 80
2017-09-02 04:00:00 19 0 Calma 5 Norte 0 -- -- 79
2017-09-02 03:00:00 19.3 2 Nordeste 7 Norte 0 -- -- 78
2017-09-02 02:00:00 20.2 4 Norte 11 Norte 0 -- -- 75
2017-09-02 01:00:00 19.6 4 Norte 8 Nordeste 0 -- -- 77
2017-09-02 00:00:00 19.5 3 Norte 7 Norte 0 -- -- 73
2017-09-01 23:00:00 21.2 3 Norte 6 Nordeste 0 -- -- 68
2017-09-01 22:00:00 22.9 2 Nordeste 6 Nordeste 0 -- -- 64
2017-09-01 21:00:00 24.1 4 Nordeste 10 Este 0 -- -- 64
2017-09-01 20:00:00 25 5 Sudoeste 17 Sudoeste 0 -- -- 69
2017-09-01 19:00:00 25.6 7 Sudoeste 18 Sudoeste 0 -- -- 68
2017-09-01 18:00:00 26.4 12 Sudoeste 20 Sur 0 -- -- 61
2017-09-01 17:00:00 27.7 8 Sudoeste 18 Sudoeste 0 -- -- 54
2017-09-01 16:00:00 29.8 10 Sudoeste 24 Sudoeste 0 -- -- 50
2017-09-01 15:00:00 29.1 13 Sudoeste 26 Sur 0 -- -- 48
2017-09-01 14:00:00 28.6 9 Sudoeste 19 Norte 0 -- -- 53
2017-09-01 13:00:00 28.3 5 Sudeste 19 Este 0 -- -- 51
2017-09-01 12:00:00 27.7 8 Nordeste 19 Este 0 -- -- 54
2017-09-01 11:00:00 26.5 9 Este 27 Este 0 -- -- 57
2017-09-01 10:00:00 25.9 10 Nordeste 23 Este 0 -- -- 61
2017-09-01 09:00:00 23.9 5 Nordeste 17 Nordeste 0 -- -- 73
2017-09-01 08:00:00 22 7 Nordeste 22 Nordeste 0 -- -- 80
2017-09-01 07:00:00 22.2 8 Nordeste 16 Nordeste 0 -- -- 82
2017-09-01 06:00:00 21.9 6 Nordeste 17 Nordeste 0 -- -- 84
2017-09-01 05:00:00 21 3 Nordeste 14 Nordeste 0 -- -- 85
2017-09-01 04:00:00 19.6 4 Norte 9 Este 0 -- -- 87
2017-09-01 03:00:00 19.5 3 Este 8 Este 0 -- -- 84
2017-09-01 02:00:00 20.4 0 Calma 13 Norte 0 -- -- 82
2017-09-01 01:00:00 20.2 3 Nordeste 7 Nordeste 0 -- -- 86
2017-09-01 00:00:00 20.3 0 Calma 5 Este 0 -- -- 83
2017-08-31 23:00:00 21.8 3 Norte 10 Norte 0 -- -- 78
2017-08-31 22:00:00 23.3 6 Norte 18 Este 0 -- -- 76
2017-08-31 21:00:00 23.7 9 Nordeste 25 Este 0 -- -- 74
2017-08-31 20:00:00 24.7 6 Nordeste 30 Este 0 -- -- 72
2017-08-31 19:00:00 27.8 12 Este 26 Este 0 -- -- 62
2017-08-31 18:00:00 28.8 10 Nordeste 22 Nordeste 0 -- -- 56
2017-08-31 17:00:00 27.9 6 Norte 21 Noroeste 0 -- -- 61
2017-08-31 16:00:00 29 9 Noroeste 26 Oeste 0 -- -- 60
2017-08-31 15:00:00 29.2 14 Oeste 26 Sur 0 -- -- 59
2017-08-31 14:00:00 29 15 Sudoeste 25 Sur 0 -- -- 64
2017-08-31 13:00:00 30.5 5 Sur 15 Sudoeste 0 -- -- 58
2017-08-31 12:00:00 28.4 8 Sudoeste 17 Sudoeste 0 -- -- 64
2017-08-31 11:00:00 27.2 2 Oeste 6 Este 0 -- -- 69
2017-08-31 10:00:00 26.8 2 Sudeste 8 Sudeste 0 -- -- 72
2017-08-31 09:00:00 23.2 3 Nordeste 6 Este 0 -- -- 85
2017-08-31 08:00:00 22.6 2 Oeste 12 Norte 0 -- -- 82
2017-08-31 07:00:00 22.7 3 Norte 8 Noroeste 0 -- -- 78
2017-08-31 06:00:00 23.3 3 Norte 15 Norte 0 -- -- 73
2017-08-31 05:00:00 23.4 4 Nordeste 17 Norte 0 -- -- 78
2017-08-31 04:00:00 21 3 Nordeste 9 Noroeste 0 -- -- 89
2017-08-31 03:00:00 21.3 6 Norte 20 Norte 0.2 -- -- 89
2017-08-31 02:00:00 20.3 5 Nordeste 10 Nordeste 0 -- -- 90
2017-08-31 01:00:00 21.1 3 Este 5 Este 0.4 -- -- 81
2017-08-31 00:00:00 21.2 3 Nordeste 7 Este 0 -- -- 79
2017-08-30 23:00:00 21.3 0 Calma 5 Noroeste 0 -- -- 81
2017-08-30 22:00:00 22.6 0 Calma 6 Este 0 -- -- 77
2017-08-30 21:00:00 24.1 3 Nordeste 6 Este 0 -- -- 72
2017-08-30 20:00:00 26.2 3 Sur 18 Sur 0 -- -- 68
2017-08-30 19:00:00 27.7 9 Sur 17 Sur 0 -- -- 64
2017-08-30 18:00:00 29.7 8 Oeste 19 Sur 0 -- -- 56
2017-08-30 17:00:00 30 8 Sudoeste 27 Oeste 0 -- -- 54
2017-08-30 16:00:00 28 10 Sudoeste 27 Oeste 0 -- -- 55
2017-08-30 15:00:00 29.5 17 Oeste 28 Noroeste 0 -- -- 44
2017-08-30 14:00:00 31.2 14 Oeste 24 Sur 0 -- -- 40
2017-08-30 13:00:00 30.4 12 Oeste 32 Sudoeste 0 -- -- 46
2017-08-30 12:00:00 31.1 4 Sudeste 12 Norte 0 -- -- 38
2017-08-30 11:00:00 29.2 6 Noroeste 17 Oeste 0 -- -- 44
2017-08-30 10:00:00 27.3 9 Norte 22 Nordeste 0 -- -- 48
2017-08-30 09:00:00 26.7 7 Noroeste 27 Noroeste 0 -- -- 49
2017-08-30 08:00:00 25.4 9 Norte 29 Noroeste 0 -- -- 59
2017-08-30 07:00:00 23.6 15 Noroeste 51 Noroeste 0 -- -- 71
2017-08-30 06:00:00 23.9 19 Norte 38 Noroeste 0 -- -- 69
2017-08-30 05:00:00 23.3 18 Noroeste 43 Noroeste 0 -- -- 72
2017-08-30 04:00:00 22.9 17 Norte 44 Noroeste 0 -- -- 79
2017-08-30 03:00:00 25.8 22 Noroeste 45 Noroeste 0 -- -- 67
2017-08-30 02:00:00 24.3 2 Norte 9 Noroeste 0 -- -- 70
2017-08-30 01:00:00 25.2 4 Nordeste 17 Nordeste 0 -- -- 67
2017-08-30 00:00:00 25.6 9 Nordeste 24 Norte 0 -- -- 67
2017-08-29 23:00:00 26.1 14 Norte 27 Norte 0 -- -- 65
2017-08-29 22:00:00 26.7 11 Norte 25 Norte 0 -- -- 62
2017-08-29 21:00:00 27.1 10 Norte 26 Norte 0 -- -- 59
2017-08-29 20:00:00 28.5 9 Norte 32 Nordeste 0 -- -- 48
2017-08-29 19:00:00 28.7 14 Norte 35 Norte 0 -- -- 56
2017-08-29 18:00:00 30.7 17 Noroeste 32 Noroeste 0 -- -- 39
2017-08-29 17:00:00 31.2 10 Norte 29 Norte 0 -- -- 37
2017-08-29 16:00:00 33.4 14 Noroeste 25 Norte 0 -- -- 36
2017-08-29 15:00:00 33 11 Noroeste 27 Oeste 0 -- -- 37
2017-08-29 14:00:00 34.2 13 Oeste 27 Noroeste 0 -- -- 38
2017-08-29 13:00:00 30.8 15 Sur 22 Sur 0 -- -- 67
2017-08-29 12:00:00 28.6 10 Sudoeste 16 Sudoeste 0 -- -- 71
2017-08-29 11:00:00 30.6 3 Norte 12 Sudeste 0 -- -- 47
2017-08-29 10:00:00 28.5 3 Sudeste 9 Noroeste 0 -- -- 64
2017-08-29 09:00:00 25.7 0 Calma 6 Este 0 -- -- 77
2017-08-29 08:00:00 21.8 2 Norte 8 Norte 0 -- -- 90
2017-08-29 07:00:00 19.9 0 Calma 5 Nordeste 0 -- -- 89
2017-08-29 06:00:00 20.1 4 Norte 7 Sudeste 0 -- -- 88
2017-08-29 05:00:00 20.1 3 Nordeste 8 Este 0 -- -- 87
2017-08-29 04:00:00 20.4 3 Este 5 Este 0 -- -- 87
2017-08-29 03:00:00 21.3 0 Calma 4 Este 0 -- -- 87
2017-08-29 02:00:00 22.8 0 Calma 5 Este 0 -- -- 89
2017-08-29 01:00:00 22.7 3 Este 8 Este 0 -- -- 92
2017-08-29 00:00:00 23.2 2 Este 9 Norte 0 -- -- 91
2017-08-28 23:00:00 24.1 2 Norte 7 Nordeste 0 -- -- 90
2017-08-28 22:00:00 25.7 5 Sudoeste 17 Sudoeste 0 -- -- 87
2017-08-28 21:00:00 26.4 5 Sudoeste 8 Sur 0 -- -- 84
2017-08-28 20:00:00 27.6 4 Sudoeste 16 Sudoeste 0 -- -- 76
2017-08-28 19:00:00 28.6 10 Sur 15 Sur 0 -- -- 75
2017-08-28 18:00:00 30.8 8 Oeste 29 Oeste 0 -- -- 65
2017-08-28 17:00:00 28.7 12 Sudoeste 39 Sudoeste 0 -- -- 70
2017-08-28 16:00:00 29.5 10 Norte 18 Norte 0 -- -- 63
2017-08-28 15:00:00 29.2 4 Sudoeste 26 Sudoeste 0 -- -- 72
2017-08-28 14:00:00 29.2 14 Sudoeste 23 Sudoeste 0 -- -- 73
2017-08-28 13:00:00 28.9 9 Sudoeste 15 Sur 0 -- -- 68
2017-08-28 12:00:00 29.1 10 Sur 14 Sur 0 -- -- 65
2017-08-28 11:00:00 29 4 Sudoeste 12 Sudoeste 0 -- -- 68
2017-08-28 10:00:00 27.2 4 Sur 9 Sur 0 -- -- 75
2017-08-28 09:00:00 25 0 Calma 5 Noroeste 0 -- -- 79
2017-08-28 08:00:00 23 4 Este 8 Este 0 -- -- 80
2017-08-28 07:00:00 21.3 2 Nordeste 8 Este 0 -- -- 86
2017-08-28 06:00:00 21 4 Nordeste 9 Este 0 -- -- 86
2017-08-28 05:00:00 20.7 2 Norte 6 Este 0 -- -- 83
2017-08-28 04:00:00 21.4 5 Nordeste 9 Este 0 -- -- 79
2017-08-28 03:00:00 22 5 Norte 9 Noroeste 0 -- -- 78
2017-08-28 02:00:00 22.7 6 Nordeste 11 Nordeste 0 -- -- 84
2017-08-28 01:00:00 23.1 3 Nordeste 9 Norte 0 -- -- 86
2017-08-28 00:00:00 23.8 3 Nordeste 7 Noroeste 0 -- -- 86
2017-08-27 23:00:00 25 2 Este 8 Nordeste 0 -- -- 81
2017-08-27 22:00:00 26.2 0 Calma 7 Sur 0 -- -- 79
2017-08-27 21:00:00 27.5 3 Sudoeste 5 Sur 0 -- -- 72
2017-08-27 20:00:00 28.4 5 Sudoeste 14 Sudoeste 0 -- -- 70
2017-08-27 19:00:00 29.6 6 Sudeste 16 Sudeste 0 -- -- 66
2017-08-27 18:00:00 31.4 8 Sudoeste 19 Sudoeste 0 -- -- 53
2017-08-27 17:00:00 35.7 5 Sudoeste 24 Oeste 0 -- -- 39
2017-08-27 16:00:00 33 13 Oeste 21 Sur 0 -- -- 56
2017-08-27 15:00:00 31.9 13 Sur 23 Oeste 0 -- -- 57
2017-08-27 14:00:00 33.1 8 Sur 23 Sur 0 -- -- 55
2017-08-27 13:00:00 30 16 Sur 23 Sur 0 -- -- 65
2017-08-27 12:00:00 31.4 8 Sudoeste 18 Sudoeste 0 -- -- 60
2017-08-27 11:00:00 30.5 8 Sudoeste 16 Oeste 0 -- -- 63
2017-08-27 10:00:00 29.8 4 Sudeste 7 Sudeste 0 -- -- 64
2017-08-27 09:00:00 26.3 0 Calma 9 Este 0 -- -- 86
2017-08-27 08:00:00 20.1 2 Nordeste 6 Noroeste 0 -- -- 96
2017-08-27 07:00:00 19.8 0 Calma 7 Este 0 -- -- 95
2017-08-27 06:00:00 20.7 6 Norte 10 Nordeste 0 -- -- 95
2017-08-27 05:00:00 20.7 3 Este 6 Este 0 -- -- 95
2017-08-27 04:00:00 21.2 0 Calma 8 Este 0 -- -- 94
2017-08-27 03:00:00 21.7 4 Este 8 Nordeste 0 -- -- 93
2017-08-27 02:00:00 22.3 0 Calma 5 Este 0 -- -- 91
2017-08-27 01:00:00 22.9 3 Este 8 Norte 0 -- -- 90
2017-08-27 00:00:00 23.7 2 Este 10 Norte 0 -- -- 88
2017-08-26 23:00:00 23.9 2 Este 5 Sur 0 -- -- 86
2017-08-26 22:00:00 24.5 4 Noroeste 7 Noroeste 0 -- -- 83
2017-08-26 21:00:00 26.1 2 Norte 10 Sur 0 -- -- 78
2017-08-26 20:00:00 27.7 3 Sudoeste 15 Sur 0 -- -- 73
2017-08-26 19:00:00 29.4 9 Sudoeste 16 Sur 0 -- -- 69
2017-08-26 18:00:00 31 8 Sudoeste 18 Sudoeste 0 -- -- 64
2017-08-26 17:00:00 32 10 Sudoeste 26 Sudoeste 0 -- -- 61
2017-08-26 16:00:00 30.7 13 Sudoeste 27 Sudoeste 0 -- -- 66
2017-08-26 15:00:00 30.8 12 Sudoeste 22 Sudoeste 0 -- -- 63
2017-08-26 14:00:00 29.9 15 Sur 23 Sudoeste 0 -- -- 65
2017-08-26 13:00:00 29.4 14 Sudoeste 21 Oeste 0 -- -- 67
2017-08-26 12:00:00 29.1 9 Sudoeste 21 Sudoeste 0 -- -- 70
2017-08-26 11:00:00 28.6 5 Sudoeste 12 Sur 0 -- -- 69
2017-08-26 10:00:00 26.9 4 Sudeste 12 Sudeste 0 -- -- 76
2017-08-26 09:00:00 27.2 0 Calma 8 Sudoeste 0 -- -- 76
2017-08-26 08:00:00 21.2 4 Nordeste 9 Este 0 -- -- 91
2017-08-26 07:00:00 21.4 4 Nordeste 17 Norte 0 -- -- 89
2017-08-26 06:00:00 22.6 7 Norte 13 Nordeste 0 -- -- 92
2017-08-26 05:00:00 21.1 4 Este 10 Sudeste 0 -- -- 96
2017-08-26 04:00:00 20.2 5 Nordeste 8 Este 0 -- -- 94
2017-08-26 03:00:00 20.9 4 Nordeste 8 Nordeste 0 -- -- 94
2017-08-26 02:00:00 21.5 2 Norte 9 Noroeste 0 -- -- 94
2017-08-26 01:00:00 22.1 4 Nordeste 8 Noroeste 0 -- -- 92
2017-08-26 00:00:00 22.5 4 Norte 6 Norte 0 -- -- 91